createdAt,value
2022-09-07T00:00:50.048Z,7.63
2022-09-07T00:04:32.191Z,6.65
2022-09-07T00:08:15.811Z,8.45
2022-09-07T00:11:57.830Z,6.90
2022-09-07T00:15:40.524Z,5.60
2022-09-07T00:19:22.942Z,10.10
2022-09-07T00:23:04.995Z,7.03
2022-09-07T00:26:47.066Z,9.07
2022-09-07T00:30:29.035Z,9.32
2022-09-07T00:34:11.118Z,9.70
2022-09-07T00:37:53.106Z,9.25
2022-09-07T00:41:35.136Z,11.65
2022-09-07T00:45:21.335Z,7.18
2022-09-07T00:49:16.557Z,10.73
2022-09-07T00:53:05.129Z,7.82
2022-09-07T00:56:49.142Z,9.95
2022-09-07T01:00:31.663Z,10.25
2022-09-07T01:04:15.185Z,11.32
2022-09-07T01:07:58.379Z,8.20
2022-09-07T01:11:41.054Z,11.25
2022-09-07T01:15:27.727Z,11.70
2022-09-07T01:19:35.948Z,8.82
2022-09-07T01:23:39.503Z,12.18
2022-09-07T01:27:36.998Z,9.38
2022-09-07T01:36:18.181Z,10.93
2022-09-07T01:40:05.992Z,8.63
2022-09-07T01:44:15.311Z,10.55
2022-09-07T01:48:01.310Z,9.52
2022-09-07T01:51:47.718Z,7.82
2022-09-07T01:55:59.302Z,10.00
2022-09-07T01:59:48.867Z,10.15
2022-09-07T02:03:37.043Z,10.90
2022-09-07T02:08:01.404Z,9.18
2022-09-07T02:11:48.529Z,9.32
2022-09-07T02:15:47.286Z,13.18
2022-09-07T02:19:35.879Z,9.35
2022-09-07T02:23:22.630Z,10.57
2022-09-07T02:27:27.233Z,10.15
2022-09-07T02:31:09.695Z,10.43
2022-09-07T02:34:51.813Z,10.77
2022-09-07T02:38:35.245Z,10.13
2022-09-07T02:42:17.246Z,13.65
2022-09-07T02:46:36.880Z,11.07
2022-09-07T02:50:47.776Z,12.23
2022-09-07T02:55:02.447Z,13.32
2022-09-07T02:59:03.268Z,12.25
2022-09-07T03:07:00.583Z,10.25
2022-09-07T03:10:44.021Z,10.82
2022-09-07T03:14:27.067Z,11.15
2022-09-07T03:18:09.307Z,10.70
2022-09-07T03:21:51.380Z,11.18
2022-09-07T03:25:33.444Z,11.15
2022-09-07T03:29:16.271Z,12.55
2022-09-07T03:32:58.352Z,10.80
2022-09-07T03:36:40.646Z,7.13
2022-09-07T03:49:04.289Z,11.43
2022-09-07T03:52:46.297Z,11.63
2022-09-07T03:56:29.630Z,12.82
2022-09-07T04:00:12.426Z,11.63
2022-09-07T04:04:02.014Z,14.02
2022-09-07T04:12:47.365Z,13.07
2022-09-07T04:16:29.972Z,8.35
2022-09-07T04:20:12.108Z,10.15
2022-09-07T04:23:54.511Z,13.68
2022-09-07T04:27:36.603Z,9.57
2022-09-07T04:31:19.380Z,11.82
2022-09-07T04:35:01.474Z,16.40
2022-09-07T04:38:43.951Z,12.32
2022-09-07T04:42:26.032Z,16.92
2022-09-07T04:46:19.983Z,9.80
2022-09-07T04:50:02.059Z,15.13
2022-09-07T04:53:47.235Z,12.82
2022-09-07T04:57:29.257Z,13.40
2022-09-07T05:01:14.278Z,11.63
2022-09-07T05:04:59.431Z,9.32
2022-09-07T05:08:47.640Z,11.00
2022-09-07T05:12:29.708Z,14.48
2022-09-07T05:16:17.859Z,9.40
2022-09-07T05:19:59.897Z,11.32
2022-09-07T05:23:43.641Z,15.70
2022-09-07T05:27:26.135Z,14.05
2022-09-07T05:34:58.479Z,13.60
2022-09-07T05:38:40.928Z,12.15
2022-09-07T05:43:25.862Z,10.68
2022-09-07T05:47:07.976Z,12.35
2022-09-07T05:50:53.459Z,11.13
2022-09-07T05:54:35.624Z,14.18
2022-09-07T05:58:18.501Z,9.85
2022-09-07T06:02:00.672Z,10.27
2022-09-07T06:05:42.967Z,15.35
2022-09-07T06:09:28.520Z,14.77
2022-09-07T06:13:12.432Z,11.15
2022-09-07T06:16:54.475Z,12.45
2022-09-07T06:20:36.601Z,10.63
2022-09-07T06:24:18.677Z,11.90
2022-09-07T06:28:00.746Z,14.43
2022-09-07T06:35:55.948Z,9.93
2022-09-07T06:39:38.084Z,13.75
2022-09-07T06:43:20.345Z,10.10
2022-09-07T06:47:03.182Z,8.55
2022-09-07T06:50:54.619Z,10.00
2022-09-07T06:58:42.338Z,7.43
2022-09-07T07:02:24.548Z,12.32
2022-09-07T07:06:07.113Z,11.25
2022-09-07T07:09:50.272Z,10.52
2022-09-07T07:13:32.539Z,8.07
2022-09-07T07:17:14.724Z,10.50
2022-09-07T07:20:56.727Z,7.40
2022-09-07T07:24:38.789Z,8.88
2022-09-07T07:32:29.539Z,10.57
2022-09-07T07:36:14.424Z,8.23
2022-09-07T07:44:00.640Z,9.90
2022-09-07T07:47:42.962Z,8.55
2022-09-07T07:51:25.066Z,9.10
2022-09-07T07:59:15.055Z,8.48
2022-09-07T08:03:03.947Z,6.97
2022-09-07T08:06:46.031Z,9.57
2022-09-07T08:10:30.518Z,8.77
2022-09-07T08:14:12.474Z,10.98
2022-09-07T08:17:54.458Z,9.05
2022-09-07T08:21:36.578Z,8.80
2022-09-07T08:25:19.323Z,11.80
2022-09-07T08:29:01.356Z,7.72
2022-09-07T08:32:43.436Z,8.98
2022-09-07T08:36:25.473Z,8.38
2022-09-07T08:40:08.577Z,9.07
2022-09-07T08:44:02.842Z,10.98
2022-09-07T08:47:50.708Z,7.07
2022-09-07T08:51:47.149Z,8.70
2022-09-07T08:55:33.627Z,7.25
2022-09-07T08:59:22.753Z,10.65
2022-09-07T09:07:16.725Z,10.18
2022-09-07T09:11:04.281Z,8.00
2022-09-07T09:15:03.561Z,6.93
2022-09-07T09:19:02.726Z,7.75
2022-09-07T09:22:45.297Z,7.93
2022-09-07T09:26:29.136Z,7.45
2022-09-07T09:30:17.273Z,4.85
2022-09-07T09:34:25.298Z,8.05
2022-09-07T09:38:50.953Z,7.63
2022-09-07T09:42:35.477Z,8.15
2022-09-07T09:46:27.360Z,10.65
2022-09-07T09:54:37.374Z,9.30
2022-09-07T10:06:38.268Z,7.38
2022-09-07T10:10:20.520Z,7.60
2022-09-07T10:14:04.515Z,10.32
2022-09-07T10:17:49.974Z,6.78
2022-09-07T10:21:32.602Z,9.65
2022-09-07T10:25:39.860Z,7.70
2022-09-07T10:29:31.451Z,7.47
2022-09-07T10:33:32.250Z,8.07
2022-09-07T10:37:42.472Z,8.40
2022-09-07T10:41:45.095Z,7.10
2022-09-07T10:45:45.988Z,6.85
2022-09-07T11:07:36.335Z,6.20
2022-09-07T11:12:07.568Z,7.93
2022-09-07T11:15:54.994Z,5.97
2022-09-07T11:19:49.430Z,6.18
2022-09-07T11:24:11.367Z,6.15
2022-09-07T11:27:59.602Z,8.18
2022-09-07T11:31:54.126Z,5.80
2022-09-07T11:35:51.792Z,7.90
2022-09-07T11:39:54.167Z,5.68
2022-09-07T11:43:41.993Z,5.32
2022-09-07T11:47:45.815Z,5.80
2022-09-07T11:51:46.314Z,4.88
2022-09-07T11:55:34.109Z,6.25
2022-09-07T11:59:19.186Z,5.22
2022-09-07T12:03:13.310Z,5.80
2022-09-07T12:07:27.459Z,6.35
2022-09-07T12:11:28.466Z,5.07
2022-09-07T12:15:36.385Z,5.32
2022-09-07T12:19:28.568Z,4.70
2022-09-07T12:23:19.690Z,7.47
2022-09-07T12:27:03.139Z,5.25
2022-09-07T12:31:04.637Z,5.97
2022-09-07T12:34:54.859Z,5.95
2022-09-07T12:39:02.800Z,8.23
2022-09-07T12:42:47.153Z,6.70
2022-09-07T12:46:34.729Z,5.70
2022-09-07T12:50:51.057Z,7.03
2022-09-07T12:54:42.912Z,6.78
2022-09-07T12:58:41.756Z,6.60
2022-09-07T13:02:43.442Z,7.43
2022-09-07T13:10:42.738Z,6.22
2022-09-07T13:14:27.763Z,6.78
2022-09-07T13:18:41.222Z,7.82
2022-09-07T13:22:37.389Z,8.30
2022-09-07T13:26:59.109Z,6.47
2022-09-07T13:30:56.139Z,7.50
2022-09-07T13:34:50.077Z,7.10
2022-09-07T13:38:35.321Z,6.18
2022-09-07T13:42:40.425Z,6.43
2022-09-07T13:46:27.904Z,7.43
2022-09-07T13:50:38.581Z,6.35
2022-09-07T13:54:27.622Z,6.28
2022-09-07T13:58:28.099Z,8.10
2022-09-07T14:02:29.421Z,6.00
2022-09-07T14:06:26.352Z,7.45
2022-09-07T14:10:14.728Z,6.18
2022-09-07T14:14:17.054Z,5.78
2022-09-07T14:18:31.749Z,7.97
2022-09-07T14:22:18.443Z,5.82
2022-09-07T14:26:25.785Z,6.15
2022-09-07T14:30:33.567Z,7.57
2022-09-07T14:34:20.084Z,7.90
2022-09-07T14:39:03.980Z,6.22
2022-09-07T14:42:25.693Z,5.57
2022-09-07T14:46:26.594Z,5.10
2022-09-07T14:50:25.773Z,7.18
2022-09-07T14:54:10.168Z,5.93
2022-09-07T14:58:16.640Z,6.82
2022-09-07T15:02:32.966Z,8.20
2022-09-07T15:11:32.979Z,5.65
2022-09-07T15:14:52.516Z,6.00
2022-09-07T15:18:56.080Z,5.28
2022-09-07T15:22:38.599Z,5.07
2022-09-07T15:30:34.505Z,6.60
2022-09-07T15:34:22.346Z,4.07
2022-09-07T15:46:16.207Z,5.25
2022-09-07T15:49:58.308Z,5.13
2022-09-07T15:57:56.871Z,5.60
2022-09-07T16:01:52.223Z,8.60
2022-09-07T16:05:35.028Z,6.10
2022-09-07T16:09:17.516Z,5.93
2022-09-07T16:13:02.231Z,6.30
2022-09-07T16:20:47.952Z,4.72
2022-09-07T16:24:35.666Z,4.63
2022-09-07T16:28:17.634Z,5.13
2022-09-07T16:36:04.610Z,5.78
2022-09-07T16:39:46.572Z,5.40
2022-09-07T16:43:28.666Z,4.50
2022-09-07T16:47:12.855Z,6.90
2022-09-07T16:51:01.066Z,4.60
2022-09-07T16:54:44.277Z,8.93
2022-09-07T16:58:36.535Z,4.78
2022-09-07T17:02:19.291Z,6.70
2022-09-07T17:06:02.273Z,8.45
2022-09-07T17:09:44.297Z,7.50
2022-09-07T17:13:26.575Z,7.15
2022-09-07T17:17:09.260Z,6.30
2022-09-07T17:20:56.665Z,7.82
2022-09-07T17:24:40.430Z,7.05
2022-09-07T17:28:22.384Z,10.15
2022-09-07T17:36:12.292Z,8.13
2022-09-07T17:39:54.456Z,6.00
2022-09-07T17:43:45.414Z,6.53
2022-09-07T17:47:30.410Z,4.43
2022-09-07T17:51:13.258Z,5.13
2022-09-07T17:54:56.131Z,6.53
2022-09-07T17:58:39.715Z,7.00
2022-09-07T18:02:21.842Z,5.55
2022-09-07T18:06:04.141Z,7.35
2022-09-07T18:09:47.131Z,4.63
2022-09-07T18:13:35.920Z,6.97
2022-09-07T18:17:19.210Z,5.67
2022-09-07T18:21:01.233Z,8.13
2022-09-07T18:24:43.259Z,8.93
2022-09-07T18:32:27.466Z,6.78
2022-09-07T18:36:11.808Z,6.10
2022-09-07T18:39:54.585Z,6.28
2022-09-07T18:43:39.101Z,4.88
2022-09-07T18:47:27.541Z,4.85
2022-09-07T18:51:10.837Z,3.58
2022-09-07T18:54:58.798Z,4.88
2022-09-07T18:58:41.975Z,3.70
2022-09-07T19:02:24.098Z,3.80
2022-09-07T19:06:10.083Z,4.22
2022-09-07T19:09:52.136Z,5.40
2022-09-07T19:13:35.377Z,7.70
2022-09-07T19:17:18.004Z,7.30
2022-09-07T19:21:08.498Z,6.72
2022-09-07T19:24:50.743Z,5.78
2022-09-07T19:28:33.236Z,6.72
2022-09-07T19:32:15.196Z,5.47
2022-09-07T19:35:57.306Z,5.97
2022-09-07T19:39:39.988Z,5.85
2022-09-07T19:43:22.097Z,5.53
2022-09-07T19:47:04.244Z,7.00
2022-09-07T19:50:47.007Z,5.15
2022-09-07T19:54:28.979Z,7.15
2022-09-07T19:58:12.717Z,5.93
2022-09-07T20:01:54.686Z,4.95
2022-09-07T20:05:42.845Z,6.80
2022-09-07T20:09:25.900Z,7.95
2022-09-07T20:13:08.203Z,5.15
2022-09-07T20:16:50.405Z,6.30
2022-09-07T20:20:34.635Z,6.00
2022-09-07T20:24:22.237Z,6.15
2022-09-07T20:28:04.234Z,5.07
2022-09-07T20:31:46.996Z,6.88
2022-09-07T20:35:31.167Z,6.97
2022-09-07T20:39:16.369Z,8.57
2022-09-07T20:42:58.984Z,5.03
2022-09-07T20:46:41.058Z,7.70
2022-09-07T20:50:23.112Z,5.45
2022-09-07T20:54:20.450Z,9.10
2022-09-07T20:58:03.303Z,11.98
2022-09-07T21:01:46.777Z,6.70
2022-09-07T21:05:28.999Z,8.55
2022-09-07T21:09:11.001Z,7.13
2022-09-07T21:13:33.982Z,7.53
2022-09-07T21:17:16.028Z,11.75
2022-09-07T21:21:18.745Z,9.23
2022-09-07T21:25:02.530Z,7.03
2022-09-07T21:28:44.649Z,8.25
2022-09-07T21:32:26.697Z,6.35
2022-09-07T21:36:11.487Z,9.25
2022-09-07T21:39:53.680Z,6.25
2022-09-07T21:43:35.833Z,6.63
2022-09-07T21:52:25.880Z,11.50
2022-09-07T21:56:11.719Z,6.45
2022-09-07T21:59:53.684Z,8.02
2022-09-07T22:03:35.704Z,9.25
2022-09-07T22:07:17.701Z,6.72
2022-09-07T22:11:12.066Z,7.75
2022-09-07T22:14:54.142Z,7.78
2022-09-07T22:18:38.048Z,13.00
2022-09-07T22:22:20.025Z,6.80
2022-09-07T22:26:02.077Z,10.73
2022-09-07T22:29:43.984Z,6.25
2022-09-07T22:33:26.156Z,10.63
2022-09-07T22:37:08.109Z,8.15
2022-09-07T22:40:50.243Z,7.70
2022-09-07T22:44:32.281Z,7.30
2022-09-07T22:48:14.231Z,5.45
2022-09-07T22:51:56.176Z,8.35
2022-09-07T22:55:39.376Z,10.23
2022-09-07T22:59:21.543Z,9.73
2022-09-07T23:03:05.303Z,10.35
2022-09-07T23:06:47.381Z,6.45
2022-09-07T23:10:29.421Z,10.80
2022-09-07T23:14:17.241Z,8.65
2022-09-07T23:23:02.381Z,9.52
2022-09-07T23:26:44.411Z,7.50
2022-09-07T23:30:26.443Z,9.30
2022-09-07T23:34:08.802Z,7.13
2022-09-07T23:37:50.704Z,10.25
2022-09-07T23:41:32.910Z,8.10
2022-09-07T23:45:15.368Z,7.85
2022-09-07T23:48:57.394Z,10.10
2022-09-07T23:52:39.403Z,7.80
2022-09-07T23:56:22.552Z,8.18
